sensor_id;sensor_type;location;lat;lon;timestamp;P1;durP1;ratioP1;P2;durP2;ratioP2
18405;SDS011;9329;48.720;9.588;2022-12-11T00:01:35;37.22;;;24.92;;
18405;SDS011;9329;48.720;9.588;2022-12-11T00:04:02;37.67;;;25.35;;
18405;SDS011;9329;48.720;9.588;2022-12-11T00:06:29;38.78;;;25.88;;
18405;SDS011;9329;48.720;9.588;2022-12-11T00:08:57;36.90;;;25.90;;
18405;SDS011;9329;48.720;9.588;2022-12-11T00:11:24;36.38;;;24.30;;
18405;SDS011;9329;48.720;9.588;2022-12-11T00:13:51;34.38;;;23.98;;
18405;SDS011;9329;48.720;9.588;2022-12-11T00:16:18;38.65;;;25.52;;
18405;SDS011;9329;48.720;9.588;2022-12-11T00:18:46;37.20;;;25.13;;
18405;SDS011;9329;48.720;9.588;2022-12-11T00:21:14;37.43;;;25.67;;
18405;SDS011;9329;48.720;9.588;2022-12-11T00:23:41;37.33;;;24.75;;
18405;SDS011;9329;48.720;9.588;2022-12-11T00:26:09;37.65;;;25.60;;
18405;SDS011;9329;48.720;9.588;2022-12-11T00:28:39;35.77;;;24.50;;
18405;SDS011;9329;48.720;9.588;2022-12-11T00:31:08;37.65;;;25.80;;
18405;SDS011;9329;48.720;9.588;2022-12-11T00:33:39;35.58;;;24.80;;
18405;SDS011;9329;48.720;9.588;2022-12-11T00:36:11;34.40;;;23.70;;
18405;SDS011;9329;48.720;9.588;2022-12-11T00:38:39;34.95;;;23.77;;
18405;SDS011;9329;48.720;9.588;2022-12-11T00:41:06;34.05;;;23.75;;
18405;SDS011;9329;48.720;9.588;2022-12-11T00:43:34;33.15;;;23.50;;
18405;SDS011;9329;48.720;9.588;2022-12-11T00:46:01;32.30;;;21.58;;
18405;SDS011;9329;48.720;9.588;2022-12-11T00:48:29;29.92;;;20.73;;
18405;SDS011;9329;48.720;9.588;2022-12-11T00:50:57;26.90;;;18.80;;
18405;SDS011;9329;48.720;9.588;2022-12-11T00:53:25;27.30;;;18.63;;
18405;SDS011;9329;48.720;9.588;2022-12-11T00:55:53;27.00;;;19.38;;
18405;SDS011;9329;48.720;9.588;2022-12-11T00:58:20;25.52;;;17.50;;
18405;SDS011;9329;48.720;9.588;2022-12-11T01:00:51;26.63;;;18.58;;
18405;SDS011;9329;48.720;9.588;2022-12-11T01:03:19;26.70;;;19.00;;
18405;SDS011;9329;48.720;9.588;2022-12-11T01:05:52;28.08;;;18.40;;
18405;SDS011;9329;48.720;9.588;2022-12-11T01:08:19;28.13;;;19.30;;
18405;SDS011;9329;48.720;9.588;2022-12-11T01:10:48;27.13;;;18.60;;
18405;SDS011;9329;48.720;9.588;2022-12-11T01:13:14;24.70;;;17.33;;
18405;SDS011;9329;48.720;9.588;2022-12-11T01:15:42;23.42;;;16.80;;
18405;SDS011;9329;48.720;9.588;2022-12-11T01:18:10;23.17;;;16.90;;
18405;SDS011;9329;48.720;9.588;2022-12-11T01:20:40;24.33;;;16.65;;
18405;SDS011;9329;48.720;9.588;2022-12-11T01:23:08;24.98;;;17.75;;
18405;SDS011;9329;48.720;9.588;2022-12-11T01:25:37;24.08;;;16.85;;
18405;SDS011;9329;48.720;9.588;2022-12-11T01:28:06;22.08;;;15.77;;
18405;SDS011;9329;48.720;9.588;2022-12-11T01:30:33;20.88;;;15.13;;
18405;SDS011;9329;48.720;9.588;2022-12-11T01:33:00;22.97;;;15.77;;
18405;SDS011;9329;48.720;9.588;2022-12-11T01:35:28;20.70;;;14.98;;
18405;SDS011;9329;48.720;9.588;2022-12-11T01:37:55;20.88;;;14.93;;
18405;SDS011;9329;48.720;9.588;2022-12-11T01:40:22;19.75;;;14.43;;
18405;SDS011;9329;48.720;9.588;2022-12-11T01:42:49;18.63;;;13.40;;
18405;SDS011;9329;48.720;9.588;2022-12-11T01:48:08;18.98;;;13.70;;
18405;SDS011;9329;48.720;9.588;2022-12-11T01:50:38;19.90;;;14.30;;
18405;SDS011;9329;48.720;9.588;2022-12-11T01:53:11;19.42;;;13.85;;
18405;SDS011;9329;48.720;9.588;2022-12-11T01:55:41;18.83;;;13.80;;
18405;SDS011;9329;48.720;9.588;2022-12-11T01:58:09;17.90;;;13.15;;
18405;SDS011;9329;48.720;9.588;2022-12-11T02:00:39;20.92;;;15.05;;
18405;SDS011;9329;48.720;9.588;2022-12-11T02:03:06;19.80;;;14.80;;
18405;SDS011;9329;48.720;9.588;2022-12-11T02:05:33;21.40;;;15.40;;
18405;SDS011;9329;48.720;9.588;2022-12-11T02:08:00;21.33;;;15.63;;
18405;SDS011;9329;48.720;9.588;2022-12-11T02:10:31;23.35;;;16.55;;
18405;SDS011;9329;48.720;9.588;2022-12-11T02:13:12;21.73;;;15.43;;
18405;SDS011;9329;48.720;9.588;2022-12-11T02:15:47;21.52;;;15.48;;
18405;SDS011;9329;48.720;9.588;2022-12-11T02:18:18;20.63;;;15.13;;
18405;SDS011;9329;48.720;9.588;2022-12-11T02:20:53;19.50;;;14.47;;
18405;SDS011;9329;48.720;9.588;2022-12-11T02:26:32;16.98;;;12.57;;
18405;SDS011;9329;48.720;9.588;2022-12-11T02:29:14;17.42;;;12.77;;
18405;SDS011;9329;48.720;9.588;2022-12-11T02:31:49;14.90;;;10.95;;
18405;SDS011;9329;48.720;9.588;2022-12-11T02:34:21;15.30;;;11.43;;
18405;SDS011;9329;48.720;9.588;2022-12-11T02:36:56;14.90;;;10.15;;
18405;SDS011;9329;48.720;9.588;2022-12-11T02:39:26;12.32;;;9.20;;
18405;SDS011;9329;48.720;9.588;2022-12-11T02:41:54;12.80;;;8.93;;
18405;SDS011;9329;48.720;9.588;2022-12-11T02:44:24;13.13;;;9.25;;
18405;SDS011;9329;48.720;9.588;2022-12-11T02:46:55;12.07;;;9.20;;
18405;SDS011;9329;48.720;9.588;2022-12-11T02:49:24;13.07;;;9.27;;
18405;SDS011;9329;48.720;9.588;2022-12-11T02:51:52;12.38;;;8.82;;
18405;SDS011;9329;48.720;9.588;2022-12-11T02:54:22;13.45;;;9.80;;
18405;SDS011;9329;48.720;9.588;2022-12-11T02:56:55;13.20;;;9.25;;
18405;SDS011;9329;48.720;9.588;2022-12-11T02:59:28;13.88;;;9.90;;
18405;SDS011;9329;48.720;9.588;2022-12-11T03:02:00;12.50;;;9.45;;
18405;SDS011;9329;48.720;9.588;2022-12-11T03:04:27;13.95;;;10.30;;
18405;SDS011;9329;48.720;9.588;2022-12-11T03:06:55;12.83;;;10.20;;
18405;SDS011;9329;48.720;9.588;2022-12-11T03:09:28;14.73;;;10.07;;
18405;SDS011;9329;48.720;9.588;2022-12-11T03:11:55;14.60;;;10.65;;
18405;SDS011;9329;48.720;9.588;2022-12-11T03:14:22;13.73;;;10.77;;
18405;SDS011;9329;48.720;9.588;2022-12-11T03:16:51;14.63;;;10.48;;
18405;SDS011;9329;48.720;9.588;2022-12-11T03:19:25;14.20;;;11.23;;
18405;SDS011;9329;48.720;9.588;2022-12-11T03:21:59;17.40;;;13.00;;
18405;SDS011;9329;48.720;9.588;2022-12-11T03:24:33;17.38;;;13.00;;
18405;SDS011;9329;48.720;9.588;2022-12-11T03:27:05;15.95;;;12.32;;
18405;SDS011;9329;48.720;9.588;2022-12-11T03:29:39;15.88;;;12.30;;
18405;SDS011;9329;48.720;9.588;2022-12-11T03:32:13;15.95;;;11.95;;
18405;SDS011;9329;48.720;9.588;2022-12-11T03:34:44;16.65;;;12.20;;
18405;SDS011;9329;48.720;9.588;2022-12-11T03:37:14;16.90;;;11.63;;
18405;SDS011;9329;48.720;9.588;2022-12-11T03:39:43;17.55;;;11.95;;
18405;SDS011;9329;48.720;9.588;2022-12-11T03:42:15;15.68;;;11.63;;
18405;SDS011;9329;48.720;9.588;2022-12-11T03:44:45;16.23;;;11.90;;
18405;SDS011;9329;48.720;9.588;2022-12-11T03:47:16;16.40;;;12.27;;
18405;SDS011;9329;48.720;9.588;2022-12-11T03:49:46;15.20;;;11.50;;
18405;SDS011;9329;48.720;9.588;2022-12-11T03:52:14;15.63;;;12.05;;
18405;SDS011;9329;48.720;9.588;2022-12-11T03:54:43;17.17;;;12.43;;
18405;SDS011;9329;48.720;9.588;2022-12-11T03:57:13;16.88;;;12.93;;
18405;SDS011;9329;48.720;9.588;2022-12-11T03:59:44;17.38;;;12.82;;
18405;SDS011;9329;48.720;9.588;2022-12-11T04:02:12;17.55;;;13.48;;
18405;SDS011;9329;48.720;9.588;2022-12-11T04:04:40;17.73;;;13.73;;
18405;SDS011;9329;48.720;9.588;2022-12-11T04:07:08;20.63;;;14.27;;
18405;SDS011;9329;48.720;9.588;2022-12-11T04:09:35;21.58;;;15.45;;
18405;SDS011;9329;48.720;9.588;2022-12-11T04:12:02;21.52;;;15.32;;
18405;SDS011;9329;48.720;9.588;2022-12-11T04:14:29;21.38;;;15.85;;
18405;SDS011;9329;48.720;9.588;2022-12-11T04:17:13;23.05;;;16.85;;
18405;SDS011;9329;48.720;9.588;2022-12-11T04:20:03;22.13;;;16.17;;
18405;SDS011;9329;48.720;9.588;2022-12-11T04:22:57;25.15;;;17.77;;
18405;SDS011;9329;48.720;9.588;2022-12-11T04:25:41;24.52;;;17.83;;
18405;SDS011;9329;48.720;9.588;2022-12-11T04:28:08;25.02;;;17.60;;
18405;SDS011;9329;48.720;9.588;2022-12-11T04:30:35;26.83;;;18.83;;
18405;SDS011;9329;48.720;9.588;2022-12-11T04:33:02;24.98;;;18.17;;
18405;SDS011;9329;48.720;9.588;2022-12-11T04:35:31;27.00;;;19.27;;
18405;SDS011;9329;48.720;9.588;2022-12-11T04:37:58;27.05;;;19.52;;
18405;SDS011;9329;48.720;9.588;2022-12-11T04:40:25;27.50;;;20.17;;
18405;SDS011;9329;48.720;9.588;2022-12-11T04:42:52;27.40;;;20.48;;
18405;SDS011;9329;48.720;9.588;2022-12-11T04:45:19;29.50;;;20.70;;
18405;SDS011;9329;48.720;9.588;2022-12-11T04:47:46;29.55;;;20.77;;
18405;SDS011;9329;48.720;9.588;2022-12-11T04:50:13;27.77;;;20.10;;
18405;SDS011;9329;48.720;9.588;2022-12-11T04:52:43;29.10;;;20.63;;
18405;SDS011;9329;48.720;9.588;2022-12-11T04:55:10;27.90;;;20.00;;
18405;SDS011;9329;48.720;9.588;2022-12-11T04:57:37;28.33;;;20.23;;
18405;SDS011;9329;48.720;9.588;2022-12-11T05:00:06;28.52;;;19.50;;
18405;SDS011;9329;48.720;9.588;2022-12-11T05:02:36;30.08;;;20.70;;
18405;SDS011;9329;48.720;9.588;2022-12-11T05:05:04;29.45;;;21.05;;
18405;SDS011;9329;48.720;9.588;2022-12-11T05:07:33;30.42;;;21.00;;
18405;SDS011;9329;48.720;9.588;2022-12-11T05:10:02;28.85;;;19.90;;
18405;SDS011;9329;48.720;9.588;2022-12-11T05:12:30;27.77;;;19.92;;
18405;SDS011;9329;48.720;9.588;2022-12-11T05:14:57;28.45;;;19.85;;
18405;SDS011;9329;48.720;9.588;2022-12-11T05:17:25;26.98;;;19.00;;
18405;SDS011;9329;48.720;9.588;2022-12-11T05:19:51;26.67;;;18.70;;
18405;SDS011;9329;48.720;9.588;2022-12-11T05:22:19;27.35;;;19.00;;
18405;SDS011;9329;48.720;9.588;2022-12-11T05:24:46;28.42;;;18.73;;
18405;SDS011;9329;48.720;9.588;2022-12-11T05:27:14;25.67;;;18.42;;
18405;SDS011;9329;48.720;9.588;2022-12-11T05:29:41;26.98;;;18.75;;
18405;SDS011;9329;48.720;9.588;2022-12-11T05:32:08;24.50;;;17.42;;
18405;SDS011;9329;48.720;9.588;2022-12-11T05:34:35;25.10;;;17.65;;
18405;SDS011;9329;48.720;9.588;2022-12-11T05:37:02;24.65;;;17.38;;
18405;SDS011;9329;48.720;9.588;2022-12-11T05:39:29;23.23;;;16.73;;
18405;SDS011;9329;48.720;9.588;2022-12-11T05:41:56;22.90;;;16.00;;
18405;SDS011;9329;48.720;9.588;2022-12-11T05:44:24;23.13;;;17.00;;
18405;SDS011;9329;48.720;9.588;2022-12-11T05:46:52;25.50;;;17.60;;
18405;SDS011;9329;48.720;9.588;2022-12-11T05:49:19;25.58;;;17.83;;
18405;SDS011;9329;48.720;9.588;2022-12-11T05:51:46;25.40;;;18.55;;
18405;SDS011;9329;48.720;9.588;2022-12-11T05:54:13;25.20;;;17.83;;
18405;SDS011;9329;48.720;9.588;2022-12-11T05:56:40;28.65;;;18.77;;
18405;SDS011;9329;48.720;9.588;2022-12-11T05:59:07;26.50;;;18.40;;
18405;SDS011;9329;48.720;9.588;2022-12-11T06:01:36;27.30;;;18.80;;
18405;SDS011;9329;48.720;9.588;2022-12-11T06:04:05;27.88;;;19.55;;
18405;SDS011;9329;48.720;9.588;2022-12-11T06:06:33;28.58;;;20.05;;
18405;SDS011;9329;48.720;9.588;2022-12-11T06:09:02;28.48;;;19.35;;
18405;SDS011;9329;48.720;9.588;2022-12-11T06:11:30;26.88;;;19.25;;
18405;SDS011;9329;48.720;9.588;2022-12-11T06:13:59;27.63;;;19.27;;
18405;SDS011;9329;48.720;9.588;2022-12-11T06:16:27;27.00;;;19.03;;
18405;SDS011;9329;48.720;9.588;2022-12-11T06:18:55;27.40;;;19.45;;
18405;SDS011;9329;48.720;9.588;2022-12-11T06:21:22;28.15;;;19.45;;
18405;SDS011;9329;48.720;9.588;2022-12-11T06:23:52;27.38;;;19.13;;
18405;SDS011;9329;48.720;9.588;2022-12-11T06:26:20;30.67;;;20.50;;
18405;SDS011;9329;48.720;9.588;2022-12-11T06:28:48;30.98;;;21.20;;
18405;SDS011;9329;48.720;9.588;2022-12-11T06:31:15;31.92;;;21.88;;
18405;SDS011;9329;48.720;9.588;2022-12-11T06:33:43;30.70;;;21.13;;
18405;SDS011;9329;48.720;9.588;2022-12-11T06:36:12;30.65;;;20.92;;
18405;SDS011;9329;48.720;9.588;2022-12-11T06:38:41;30.17;;;20.63;;
18405;SDS011;9329;48.720;9.588;2022-12-11T06:41:08;30.85;;;21.08;;
18405;SDS011;9329;48.720;9.588;2022-12-11T06:43:36;29.27;;;20.60;;
18405;SDS011;9329;48.720;9.588;2022-12-11T06:46:05;29.65;;;20.65;;
18405;SDS011;9329;48.720;9.588;2022-12-11T06:48:34;30.60;;;20.55;;
18405;SDS011;9329;48.720;9.588;2022-12-11T06:51:03;32.13;;;20.52;;
18405;SDS011;9329;48.720;9.588;2022-12-11T06:53:33;30.08;;;19.98;;
18405;SDS011;9329;48.720;9.588;2022-12-11T06:56:03;32.38;;;21.95;;
18405;SDS011;9329;48.720;9.588;2022-12-11T06:58:32;30.10;;;21.15;;
18405;SDS011;9329;48.720;9.588;2022-12-11T07:01:00;30.95;;;21.45;;
18405;SDS011;9329;48.720;9.588;2022-12-11T07:03:28;32.30;;;21.88;;
18405;SDS011;9329;48.720;9.588;2022-12-11T07:05:58;36.42;;;22.95;;
18405;SDS011;9329;48.720;9.588;2022-12-11T07:08:26;33.53;;;22.42;;
18405;SDS011;9329;48.720;9.588;2022-12-11T07:11:00;33.72;;;22.25;;
18405;SDS011;9329;48.720;9.588;2022-12-11T07:13:28;32.72;;;22.15;;
18405;SDS011;9329;48.720;9.588;2022-12-11T07:15:56;31.58;;;21.63;;
18405;SDS011;9329;48.720;9.588;2022-12-11T07:18:23;32.45;;;21.88;;
18405;SDS011;9329;48.720;9.588;2022-12-11T07:20:50;33.20;;;22.65;;
18405;SDS011;9329;48.720;9.588;2022-12-11T07:23:17;32.83;;;21.88;;
18405;SDS011;9329;48.720;9.588;2022-12-11T07:25:44;32.60;;;22.27;;
18405;SDS011;9329;48.720;9.588;2022-12-11T07:28:13;34.35;;;22.75;;
18405;SDS011;9329;48.720;9.588;2022-12-11T07:30:40;31.30;;;21.52;;
18405;SDS011;9329;48.720;9.588;2022-12-11T07:33:09;35.13;;;22.67;;
18405;SDS011;9329;48.720;9.588;2022-12-11T07:35:36;32.85;;;21.63;;
18405;SDS011;9329;48.720;9.588;2022-12-11T07:38:03;33.22;;;21.20;;
18405;SDS011;9329;48.720;9.588;2022-12-11T07:40:31;31.35;;;21.50;;
18405;SDS011;9329;48.720;9.588;2022-12-11T07:42:58;32.83;;;21.93;;
18405;SDS011;9329;48.720;9.588;2022-12-11T07:45:27;36.40;;;24.83;;
18405;SDS011;9329;48.720;9.588;2022-12-11T07:47:54;32.17;;;22.13;;
18405;SDS011;9329;48.720;9.588;2022-12-11T07:50:21;33.03;;;21.42;;
18405;SDS011;9329;48.720;9.588;2022-12-11T07:52:48;28.88;;;19.63;;
18405;SDS011;9329;48.720;9.588;2022-12-11T07:55:15;27.75;;;19.55;;
18405;SDS011;9329;48.720;9.588;2022-12-11T07:57:42;29.75;;;19.88;;
18405;SDS011;9329;48.720;9.588;2022-12-11T08:00:09;28.02;;;18.83;;
18405;SDS011;9329;48.720;9.588;2022-12-11T08:02:41;29.90;;;20.10;;
18405;SDS011;9329;48.720;9.588;2022-12-11T08:05:08;29.30;;;20.42;;
18405;SDS011;9329;48.720;9.588;2022-12-11T08:07:36;30.52;;;19.98;;
18405;SDS011;9329;48.720;9.588;2022-12-11T08:10:03;27.80;;;18.95;;
18405;SDS011;9329;48.720;9.588;2022-12-11T08:12:31;27.58;;;18.88;;
18405;SDS011;9329;48.720;9.588;2022-12-11T08:14:58;26.75;;;18.58;;
18405;SDS011;9329;48.720;9.588;2022-12-11T08:17:25;31.13;;;20.70;;
18405;SDS011;9329;48.720;9.588;2022-12-11T08:19:54;28.88;;;19.77;;
18405;SDS011;9329;48.720;9.588;2022-12-11T08:22:21;27.33;;;19.37;;
18405;SDS011;9329;48.720;9.588;2022-12-11T08:24:48;28.13;;;18.90;;
18405;SDS011;9329;48.720;9.588;2022-12-11T08:27:15;28.70;;;19.30;;
18405;SDS011;9329;48.720;9.588;2022-12-11T08:29:42;28.60;;;19.35;;
18405;SDS011;9329;48.720;9.588;2022-12-11T08:32:10;29.63;;;19.58;;
18405;SDS011;9329;48.720;9.588;2022-12-11T08:34:38;26.05;;;18.35;;
18405;SDS011;9329;48.720;9.588;2022-12-11T08:37:06;28.25;;;18.60;;
18405;SDS011;9329;48.720;9.588;2022-12-11T08:39:33;25.77;;;17.85;;
18405;SDS011;9329;48.720;9.588;2022-12-11T08:42:01;26.02;;;18.35;;
18405;SDS011;9329;48.720;9.588;2022-12-11T08:44:28;26.65;;;18.00;;
18405;SDS011;9329;48.720;9.588;2022-12-11T08:46:55;27.70;;;18.77;;
18405;SDS011;9329;48.720;9.588;2022-12-11T08:49:22;27.85;;;18.73;;
18405;SDS011;9329;48.720;9.588;2022-12-11T08:51:49;27.30;;;18.63;;
18405;SDS011;9329;48.720;9.588;2022-12-11T08:54:17;28.55;;;18.95;;
18405;SDS011;9329;48.720;9.588;2022-12-11T08:56:48;28.27;;;18.27;;
18405;SDS011;9329;48.720;9.588;2022-12-11T08:59:15;26.95;;;18.20;;
18405;SDS011;9329;48.720;9.588;2022-12-11T09:01:43;26.70;;;18.20;;
18405;SDS011;9329;48.720;9.588;2022-12-11T09:04:10;26.05;;;18.45;;
18405;SDS011;9329;48.720;9.588;2022-12-11T09:06:37;28.13;;;18.77;;
18405;SDS011;9329;48.720;9.588;2022-12-11T09:09:05;27.35;;;18.15;;
18405;SDS011;9329;48.720;9.588;2022-12-11T09:11:34;27.00;;;18.45;;
18405;SDS011;9329;48.720;9.588;2022-12-11T09:14:03;27.33;;;18.00;;
18405;SDS011;9329;48.720;9.588;2022-12-11T09:16:30;27.38;;;18.70;;
18405;SDS011;9329;48.720;9.588;2022-12-11T09:18:58;25.38;;;17.90;;
18405;SDS011;9329;48.720;9.588;2022-12-11T09:21:26;26.02;;;18.45;;
18405;SDS011;9329;48.720;9.588;2022-12-11T09:23:55;28.52;;;18.67;;
18405;SDS011;9329;48.720;9.588;2022-12-11T09:26:24;27.50;;;18.38;;
18405;SDS011;9329;48.720;9.588;2022-12-11T09:28:54;27.27;;;18.67;;
18405;SDS011;9329;48.720;9.588;2022-12-11T09:31:22;26.63;;;18.50;;
18405;SDS011;9329;48.720;9.588;2022-12-11T09:33:51;27.70;;;18.80;;
18405;SDS011;9329;48.720;9.588;2022-12-11T09:36:20;28.85;;;18.42;;
18405;SDS011;9329;48.720;9.588;2022-12-11T09:38:48;26.97;;;18.07;;
18405;SDS011;9329;48.720;9.588;2022-12-11T09:41:34;25.02;;;16.55;;
18405;SDS011;9329;48.720;9.588;2022-12-11T09:44:13;26.75;;;18.08;;
18405;SDS011;9329;48.720;9.588;2022-12-11T09:46:45;25.30;;;17.40;;
18405;SDS011;9329;48.720;9.588;2022-12-11T09:49:16;27.85;;;18.10;;
18405;SDS011;9329;48.720;9.588;2022-12-11T09:51:51;29.67;;;19.20;;
18405;SDS011;9329;48.720;9.588;2022-12-11T09:54:25;26.90;;;18.45;;
18405;SDS011;9329;48.720;9.588;2022-12-11T09:56:55;27.92;;;19.10;;
18405;SDS011;9329;48.720;9.588;2022-12-11T09:59:30;26.60;;;18.48;;
18405;SDS011;9329;48.720;9.588;2022-12-11T10:02:11;26.48;;;18.00;;
18405;SDS011;9329;48.720;9.588;2022-12-11T10:04:49;28.50;;;19.63;;
18405;SDS011;9329;48.720;9.588;2022-12-11T10:07:31;26.95;;;18.40;;
18405;SDS011;9329;48.720;9.588;2022-12-11T10:10:07;30.20;;;18.97;;
18405;SDS011;9329;48.720;9.588;2022-12-11T10:12:44;25.05;;;17.25;;
18405;SDS011;9329;48.720;9.588;2022-12-11T10:15:27;26.52;;;17.60;;
18405;SDS011;9329;48.720;9.588;2022-12-11T10:18:01;28.10;;;18.83;;
18405;SDS011;9329;48.720;9.588;2022-12-11T10:20:35;27.35;;;18.45;;
18405;SDS011;9329;48.720;9.588;2022-12-11T10:23:05;27.10;;;18.55;;
18405;SDS011;9329;48.720;9.588;2022-12-11T10:25:36;32.20;;;21.77;;
18405;SDS011;9329;48.720;9.588;2022-12-11T10:28:08;28.30;;;19.80;;
18405;SDS011;9329;48.720;9.588;2022-12-11T10:30:40;30.52;;;20.65;;
18405;SDS011;9329;48.720;9.588;2022-12-11T10:33:13;29.37;;;20.03;;
18405;SDS011;9329;48.720;9.588;2022-12-11T10:35:47;30.60;;;20.40;;
18405;SDS011;9329;48.720;9.588;2022-12-11T10:38:23;26.13;;;18.08;;
18405;SDS011;9329;48.720;9.588;2022-12-11T10:40:54;28.00;;;19.40;;
18405;SDS011;9329;48.720;9.588;2022-12-11T10:43:33;27.33;;;18.70;;
18405;SDS011;9329;48.720;9.588;2022-12-11T10:46:03;27.73;;;19.55;;
18405;SDS011;9329;48.720;9.588;2022-12-11T10:48:31;26.95;;;19.15;;
18405;SDS011;9329;48.720;9.588;2022-12-11T10:50:59;27.83;;;19.40;;
18405;SDS011;9329;48.720;9.588;2022-12-11T10:53:29;35.92;;;23.95;;
18405;SDS011;9329;48.720;9.588;2022-12-11T10:55:57;30.35;;;20.50;;
18405;SDS011;9329;48.720;9.588;2022-12-11T10:58:25;29.00;;;20.38;;
18405;SDS011;9329;48.720;9.588;2022-12-11T11:01:06;30.50;;;20.52;;
18405;SDS011;9329;48.720;9.588;2022-12-11T11:03:35;29.02;;;19.15;;
18405;SDS011;9329;48.720;9.588;2022-12-11T11:06:13;28.48;;;19.55;;
18405;SDS011;9329;48.720;9.588;2022-12-11T11:08:43;29.25;;;19.80;;
18405;SDS011;9329;48.720;9.588;2022-12-11T11:11:15;29.67;;;20.40;;
18405;SDS011;9329;48.720;9.588;2022-12-11T11:13:49;30.55;;;21.13;;
18405;SDS011;9329;48.720;9.588;2022-12-11T11:16:19;30.58;;;21.60;;
18405;SDS011;9329;48.720;9.588;2022-12-11T11:18:48;31.13;;;21.83;;
18405;SDS011;9329;48.720;9.588;2022-12-11T11:21:19;29.52;;;20.77;;
18405;SDS011;9329;48.720;9.588;2022-12-11T11:23:48;30.25;;;20.17;;
18405;SDS011;9329;48.720;9.588;2022-12-11T11:26:16;29.35;;;19.90;;
18405;SDS011;9329;48.720;9.588;2022-12-11T11:28:46;30.05;;;20.33;;
18405;SDS011;9329;48.720;9.588;2022-12-11T11:31:15;30.85;;;21.25;;
18405;SDS011;9329;48.720;9.588;2022-12-11T11:33:46;32.55;;;21.00;;
18405;SDS011;9329;48.720;9.588;2022-12-11T11:36:22;31.30;;;20.87;;
18405;SDS011;9329;48.720;9.588;2022-12-11T11:38:55;29.67;;;20.55;;
18405;SDS011;9329;48.720;9.588;2022-12-11T11:41:31;30.65;;;20.40;;
18405;SDS011;9329;48.720;9.588;2022-12-11T11:44:04;28.30;;;19.08;;
18405;SDS011;9329;48.720;9.588;2022-12-11T11:46:36;30.90;;;20.50;;
18405;SDS011;9329;48.720;9.588;2022-12-11T11:49:12;29.42;;;20.77;;
18405;SDS011;9329;48.720;9.588;2022-12-11T11:51:45;28.10;;;20.13;;
18405;SDS011;9329;48.720;9.588;2022-12-11T11:54:19;28.15;;;19.60;;
18405;SDS011;9329;48.720;9.588;2022-12-11T11:56:54;32.55;;;21.58;;
18405;SDS011;9329;48.720;9.588;2022-12-11T11:59:23;31.08;;;21.02;;
18405;SDS011;9329;48.720;9.588;2022-12-11T12:01:56;31.52;;;21.33;;
18405;SDS011;9329;48.720;9.588;2022-12-11T12:04:25;30.80;;;20.70;;
18405;SDS011;9329;48.720;9.588;2022-12-11T12:07:02;30.52;;;20.92;;
18405;SDS011;9329;48.720;9.588;2022-12-11T12:09:51;29.35;;;19.60;;
18405;SDS011;9329;48.720;9.588;2022-12-11T12:12:27;28.73;;;19.48;;
18405;SDS011;9329;48.720;9.588;2022-12-11T12:15:07;29.88;;;20.48;;
18405;SDS011;9329;48.720;9.588;2022-12-11T12:17:44;28.48;;;19.63;;
18405;SDS011;9329;48.720;9.588;2022-12-11T12:20:21;29.13;;;20.10;;
18405;SDS011;9329;48.720;9.588;2022-12-11T12:22:56;31.00;;;20.40;;
18405;SDS011;9329;48.720;9.588;2022-12-11T12:25:34;31.58;;;21.63;;
18405;SDS011;9329;48.720;9.588;2022-12-11T12:28:06;29.40;;;19.77;;
18405;SDS011;9329;48.720;9.588;2022-12-11T12:30:45;27.95;;;19.17;;
18405;SDS011;9329;48.720;9.588;2022-12-11T12:33:25;28.08;;;19.35;;
18405;SDS011;9329;48.720;9.588;2022-12-11T12:36:01;27.83;;;18.30;;
18405;SDS011;9329;48.720;9.588;2022-12-11T12:38:38;26.02;;;17.35;;
18405;SDS011;9329;48.720;9.588;2022-12-11T12:41:13;26.13;;;17.92;;
18405;SDS011;9329;48.720;9.588;2022-12-11T12:43:52;26.02;;;17.38;;
18405;SDS011;9329;48.720;9.588;2022-12-11T12:46:33;24.67;;;16.55;;
18405;SDS011;9329;48.720;9.588;2022-12-11T12:49:13;24.95;;;16.83;;
18405;SDS011;9329;48.720;9.588;2022-12-11T12:51:43;25.90;;;17.35;;
18405;SDS011;9329;48.720;9.588;2022-12-11T12:54:11;24.08;;;15.95;;
18405;SDS011;9329;48.720;9.588;2022-12-11T12:56:41;22.42;;;16.20;;
18405;SDS011;9329;48.720;9.588;2022-12-11T12:59:17;23.85;;;15.60;;
18405;SDS011;9329;48.720;9.588;2022-12-11T13:01:46;23.45;;;16.15;;
18405;SDS011;9329;48.720;9.588;2022-12-11T13:04:26;24.00;;;15.80;;
18405;SDS011;9329;48.720;9.588;2022-12-11T13:07:08;21.52;;;14.75;;
18405;SDS011;9329;48.720;9.588;2022-12-11T13:09:38;22.30;;;14.95;;
18405;SDS011;9329;48.720;9.588;2022-12-11T13:12:11;23.00;;;15.63;;
18405;SDS011;9329;48.720;9.588;2022-12-11T13:14:39;25.52;;;16.50;;
18405;SDS011;9329;48.720;9.588;2022-12-11T13:17:22;21.58;;;15.48;;
18405;SDS011;9329;48.720;9.588;2022-12-11T13:20:05;23.15;;;15.57;;
18405;SDS011;9329;48.720;9.588;2022-12-11T13:22:47;23.23;;;15.38;;
18405;SDS011;9329;48.720;9.588;2022-12-11T13:25:19;25.70;;;16.73;;
18405;SDS011;9329;48.720;9.588;2022-12-11T13:27:49;24.10;;;15.65;;
18405;SDS011;9329;48.720;9.588;2022-12-11T13:30:20;23.77;;;15.73;;
18405;SDS011;9329;48.720;9.588;2022-12-11T13:32:51;24.55;;;16.75;;
18405;SDS011;9329;48.720;9.588;2022-12-11T13:35:24;25.30;;;17.03;;
18405;SDS011;9329;48.720;9.588;2022-12-11T13:37:53;24.83;;;16.50;;
18405;SDS011;9329;48.720;9.588;2022-12-11T13:40:24;24.35;;;16.58;;
18405;SDS011;9329;48.720;9.588;2022-12-11T13:42:54;25.33;;;16.63;;
18405;SDS011;9329;48.720;9.588;2022-12-11T13:45:25;22.80;;;15.13;;
18405;SDS011;9329;48.720;9.588;2022-12-11T13:47:55;22.83;;;15.63;;
18405;SDS011;9329;48.720;9.588;2022-12-11T13:50:24;22.25;;;15.43;;
18405;SDS011;9329;48.720;9.588;2022-12-11T13:52:56;21.55;;;15.38;;
18405;SDS011;9329;48.720;9.588;2022-12-11T13:55:25;22.38;;;15.50;;
18405;SDS011;9329;48.720;9.588;2022-12-11T13:57:54;22.63;;;15.63;;
18405;SDS011;9329;48.720;9.588;2022-12-11T14:00:22;24.42;;;16.08;;
18405;SDS011;9329;48.720;9.588;2022-12-11T14:02:51;22.33;;;14.43;;
18405;SDS011;9329;48.720;9.588;2022-12-11T14:05:20;22.70;;;15.38;;
18405;SDS011;9329;48.720;9.588;2022-12-11T14:07:48;23.92;;;16.23;;
18405;SDS011;9329;48.720;9.588;2022-12-11T14:10:20;23.13;;;15.85;;
18405;SDS011;9329;48.720;9.588;2022-12-11T14:12:50;25.70;;;16.88;;
18405;SDS011;9329;48.720;9.588;2022-12-11T14:15:22;23.67;;;16.30;;
18405;SDS011;9329;48.720;9.588;2022-12-11T14:17:50;27.55;;;17.67;;
18405;SDS011;9329;48.720;9.588;2022-12-11T14:20:19;25.85;;;17.52;;
18405;SDS011;9329;48.720;9.588;2022-12-11T14:22:48;29.33;;;18.05;;
18405;SDS011;9329;48.720;9.588;2022-12-11T14:25:17;26.20;;;16.92;;
18405;SDS011;9329;48.720;9.588;2022-12-11T14:27:49;24.95;;;16.67;;
18405;SDS011;9329;48.720;9.588;2022-12-11T14:30:21;26.63;;;17.08;;
18405;SDS011;9329;48.720;9.588;2022-12-11T14:32:50;28.05;;;17.98;;
18405;SDS011;9329;48.720;9.588;2022-12-11T14:35:23;29.13;;;18.35;;
18405;SDS011;9329;48.720;9.588;2022-12-11T14:37:53;28.80;;;19.10;;
18405;SDS011;9329;48.720;9.588;2022-12-11T14:40:23;25.90;;;17.55;;
18405;SDS011;9329;48.720;9.588;2022-12-11T14:42:54;25.98;;;17.80;;
18405;SDS011;9329;48.720;9.588;2022-12-11T14:45:26;27.15;;;17.70;;
18405;SDS011;9329;48.720;9.588;2022-12-11T14:47:57;27.25;;;18.42;;
18405;SDS011;9329;48.720;9.588;2022-12-11T14:50:28;28.00;;;18.95;;
18405;SDS011;9329;48.720;9.588;2022-12-11T14:53:02;28.58;;;18.65;;
18405;SDS011;9329;48.720;9.588;2022-12-11T14:55:34;28.27;;;18.65;;
18405;SDS011;9329;48.720;9.588;2022-12-11T14:58:05;28.35;;;18.67;;
18405;SDS011;9329;48.720;9.588;2022-12-11T15:00:39;27.83;;;18.33;;